createdAt,value
2018-06-29T00:01:12.616Z,12.20
2018-06-29T00:03:41.393Z,13.03
2018-06-29T00:06:09.980Z,13.70
2018-06-29T00:08:38.570Z,13.57
2018-06-29T00:11:07.245Z,13.43
2018-06-29T00:13:35.793Z,13.13
2018-06-29T00:16:04.376Z,13.30
2018-06-29T00:18:32.879Z,15.33
2018-06-29T00:21:02.050Z,15.43
2018-06-29T00:23:30.664Z,12.50
2018-06-29T00:25:59.248Z,13.67
2018-06-29T00:28:28.071Z,16.40
2018-06-29T00:30:56.765Z,13.90
2018-06-29T00:33:25.319Z,17.77
2018-06-29T00:35:53.941Z,16.20
2018-06-29T00:38:22.832Z,13.53
2018-06-29T00:40:51.398Z,14.23
2018-06-29T00:43:20.188Z,15.83
2018-06-29T00:45:48.809Z,13.77
2018-06-29T00:48:17.357Z,12.03
2018-06-29T00:50:46.053Z,13.47
2018-06-29T00:53:14.661Z,12.20
2018-06-29T00:55:43.455Z,12.80
2018-06-29T00:58:12.035Z,14.80
2018-06-29T01:00:40.850Z,15.43
2018-06-29T01:03:09.908Z,13.43
2018-06-29T01:05:38.789Z,14.53
2018-06-29T01:08:07.439Z,13.13
2018-06-29T01:10:36.152Z,13.00
2018-06-29T01:13:04.741Z,12.43
2018-06-29T01:15:33.476Z,13.07
2018-06-29T01:18:02.161Z,13.10
2018-06-29T01:20:30.778Z,13.70
2018-06-29T01:22:59.844Z,13.13
2018-06-29T01:25:28.476Z,13.63
2018-06-29T01:27:57.065Z,14.13
2018-06-29T01:30:25.881Z,14.77
2018-06-29T01:32:54.645Z,13.80
2018-06-29T01:35:23.410Z,13.50
2018-06-29T01:37:52.153Z,13.53
2018-06-29T01:40:20.817Z,14.10
2018-06-29T01:42:49.432Z,14.60
2018-06-29T01:45:18.110Z,14.10
2018-06-29T01:47:46.745Z,12.93
2018-06-29T01:50:15.452Z,13.50
2018-06-29T01:52:44.103Z,13.53
2018-06-29T01:55:19.338Z,15.30
2018-06-29T01:57:47.946Z,14.63
2018-06-29T02:00:16.646Z,14.53
2018-06-29T02:02:45.276Z,14.43
2018-06-29T02:05:13.611Z,13.87
2018-06-29T02:07:42.334Z,13.57
2018-06-29T02:10:11.280Z,13.57
2018-06-29T02:12:39.937Z,13.27
2018-06-29T02:15:08.833Z,13.03
2018-06-29T02:17:37.453Z,12.80
2018-06-29T02:20:06.580Z,14.17
2018-06-29T02:22:35.119Z,15.33
2018-06-29T02:25:03.881Z,13.03
2018-06-29T02:27:32.533Z,14.83
2018-06-29T02:30:01.194Z,13.30
2018-06-29T02:32:29.847Z,14.73
2018-06-29T02:34:58.457Z,14.23
2018-06-29T02:37:27.606Z,13.27
2018-06-29T02:39:56.225Z,14.67
2018-06-29T02:42:24.907Z,12.67
2018-06-29T02:44:54.007Z,13.47
2018-06-29T02:47:22.881Z,13.63
2018-06-29T02:49:51.540Z,13.87
2018-06-29T02:52:20.217Z,14.47
2018-06-29T02:54:48.816Z,13.27
2018-06-29T02:57:17.435Z,13.60
2018-06-29T02:59:46.030Z,13.93
2018-06-29T03:02:14.706Z,15.80
2018-06-29T03:04:43.256Z,13.97
2018-06-29T03:07:11.900Z,14.03
2018-06-29T03:09:40.430Z,15.90
2018-06-29T03:12:09.459Z,14.03
2018-06-29T03:14:38.020Z,13.87
2018-06-29T03:17:06.648Z,13.83
2018-06-29T03:19:35.525Z,13.00
2018-06-29T03:22:04.323Z,13.57
2018-06-29T03:24:33.472Z,17.50
2018-06-29T03:27:02.534Z,13.73
2018-06-29T03:29:31.818Z,13.27
2018-06-29T03:32:01.276Z,14.73
2018-06-29T03:34:30.129Z,13.07
2018-06-29T03:36:59.215Z,14.27
2018-06-29T03:39:29.126Z,14.10
2018-06-29T03:41:57.866Z,12.37
2018-06-29T03:44:26.403Z,11.97
2018-06-29T03:46:56.208Z,12.00
2018-06-29T03:49:24.804Z,12.20
2018-06-29T03:51:53.465Z,14.53
2018-06-29T03:54:23.123Z,12.57
2018-06-29T03:56:51.770Z,12.17
2018-06-29T03:59:20.910Z,12.80
2018-06-29T04:01:49.663Z,14.37
2018-06-29T04:04:18.244Z,13.67
2018-06-29T04:06:47.088Z,13.73
2018-06-29T04:09:15.719Z,13.60
2018-06-29T04:11:44.380Z,15.23
2018-06-29T04:14:13.211Z,12.77
2018-06-29T04:16:41.832Z,11.57
2018-06-29T04:19:10.428Z,13.00
2018-06-29T04:21:39.147Z,12.03
2018-06-29T04:24:08.186Z,12.70
2018-06-29T04:26:37.615Z,16.83
2018-06-29T04:29:06.308Z,13.47
2018-06-29T04:31:35.311Z,11.93
2018-06-29T04:34:04.630Z,17.57
2018-06-29T04:36:33.971Z,13.27
2018-06-29T04:39:02.747Z,11.63
2018-06-29T04:41:31.412Z,11.07
2018-06-29T04:44:00.044Z,12.00
2018-06-29T04:46:28.739Z,13.73
2018-06-29T04:48:57.359Z,11.93
2018-06-29T04:51:26.205Z,13.70
2018-06-29T04:53:55.578Z,12.33
2018-06-29T04:56:24.434Z,12.60
2018-06-29T04:58:53.953Z,15.33
2018-06-29T05:01:22.900Z,11.17
2018-06-29T05:03:51.617Z,13.07
2018-06-29T05:06:20.804Z,11.60
2018-06-29T05:08:49.579Z,11.23
2018-06-29T05:11:18.306Z,14.23
2018-06-29T05:13:46.994Z,11.53
2018-06-29T05:16:15.747Z,11.80
2018-06-29T05:18:45.769Z,13.20
2018-06-29T05:21:14.783Z,10.60
2018-06-29T05:23:43.595Z,13.10
2018-06-29T05:26:12.653Z,12.97
2018-06-29T05:28:41.889Z,11.23
2018-06-29T05:31:10.752Z,13.57
2018-06-29T05:33:39.961Z,11.37
2018-06-29T05:36:09.870Z,12.50
2018-06-29T05:38:38.745Z,16.03
2018-06-29T05:41:07.394Z,11.60
2018-06-29T05:43:36.528Z,12.93
2018-06-29T05:46:06.036Z,12.10
2018-06-29T05:48:35.034Z,14.77
2018-06-29T05:51:03.875Z,16.17
2018-06-29T05:53:33.728Z,12.80
2018-06-29T05:56:02.404Z,14.47
2018-06-29T05:58:31.756Z,12.73
2018-06-29T06:01:00.733Z,14.57
2018-06-29T06:03:29.452Z,13.50
2018-06-29T06:05:58.122Z,11.97
2018-06-29T06:08:26.808Z,12.20
2018-06-29T06:10:56.419Z,12.23
2018-06-29T06:13:26.108Z,11.33
2018-06-29T06:15:54.880Z,12.23
2018-06-29T06:18:25.706Z,13.23
2018-06-29T06:20:55.034Z,12.73
2018-06-29T06:23:24.934Z,12.73
2018-06-29T06:25:54.032Z,13.93
2018-06-29T06:28:23.195Z,12.80
2018-06-29T06:30:52.448Z,12.93
2018-06-29T06:33:21.209Z,12.97
2018-06-29T06:35:50.499Z,13.30
2018-06-29T06:38:19.167Z,13.37
2018-06-29T06:40:49.414Z,16.43
2018-06-29T06:43:17.980Z,12.83
2018-06-29T06:45:48.244Z,13.87
2018-06-29T06:48:16.951Z,13.57
2018-06-29T06:50:48.301Z,13.20
2018-06-29T06:53:17.806Z,13.77
2018-06-29T06:55:46.767Z,14.03
2018-06-29T06:58:15.616Z,14.87
2018-06-29T07:00:44.544Z,14.40
2018-06-29T07:03:13.499Z,14.47
2018-06-29T07:05:41.849Z,16.03
2018-06-29T07:08:10.606Z,14.33
2018-06-29T07:10:39.704Z,15.50
2018-06-29T07:13:08.967Z,49.37
2018-06-29T07:15:37.508Z,36.63
2018-06-29T07:18:06.297Z,21.90
2018-06-29T07:20:35.742Z,13.27
2018-06-29T07:23:04.387Z,15.03
2018-06-29T07:25:32.988Z,13.37
2018-06-29T07:28:02.454Z,13.20
2018-06-29T07:30:31.199Z,13.73
2018-06-29T07:33:00.102Z,19.67
2018-06-29T07:35:29.277Z,14.67
2018-06-29T07:37:57.949Z,15.10
2018-06-29T07:40:26.809Z,14.43
2018-06-29T07:42:55.481Z,15.70
2018-06-29T07:45:24.577Z,15.33
2018-06-29T07:47:53.386Z,14.73
2018-06-29T07:50:22.118Z,14.63
2018-06-29T07:52:50.694Z,13.17
2018-06-29T07:55:19.317Z,20.60
2018-06-29T07:57:48.280Z,16.03
2018-06-29T08:00:17.946Z,13.47
2018-06-29T08:02:46.874Z,12.93
2018-06-29T08:05:15.788Z,13.70
2018-06-29T08:07:44.827Z,14.17
2018-06-29T08:10:13.441Z,14.73
2018-06-29T08:12:43.288Z,12.63
2018-06-29T08:15:13.628Z,13.43
2018-06-29T08:17:42.215Z,12.83
2018-06-29T08:20:10.850Z,12.93
2018-06-29T08:22:39.686Z,12.37
2018-06-29T08:25:12.772Z,13.77
2018-06-29T08:27:42.147Z,12.83
2018-06-29T08:30:11.990Z,12.43
2018-06-29T08:32:41.392Z,12.30
2018-06-29T08:35:11.201Z,11.73
2018-06-29T08:37:40.147Z,13.93
2018-06-29T08:40:09.683Z,12.27
2018-06-29T08:42:38.351Z,13.70
2018-06-29T08:45:08.097Z,12.43
2018-06-29T08:47:37.310Z,16.40
2018-06-29T08:50:05.985Z,16.83
2018-06-29T08:52:49.253Z,15.17
2018-06-29T08:55:18.983Z,13.37
2018-06-29T08:57:48.283Z,11.47
2018-06-29T09:00:17.379Z,10.83
2018-06-29T09:02:46.338Z,12.27
2018-06-29T09:05:15.925Z,11.93
2018-06-29T09:07:44.833Z,11.10
2018-06-29T09:10:13.716Z,11.53
2018-06-29T09:12:42.311Z,11.57
2018-06-29T09:15:11.140Z,12.17
2018-06-29T09:17:40.117Z,15.90
2018-06-29T09:20:08.996Z,11.93
2018-06-29T09:22:38.407Z,12.30
2018-06-29T09:25:07.354Z,13.47
2018-06-29T09:27:36.015Z,11.80
2018-06-29T09:30:05.935Z,11.60
2018-06-29T09:32:34.536Z,11.10
2018-06-29T09:35:03.139Z,12.90
2018-06-29T09:37:31.965Z,13.47
2018-06-29T09:40:00.240Z,11.80
2018-06-29T09:42:29.342Z,13.27
2018-06-29T09:44:58.764Z,14.57
2018-06-29T09:47:29.328Z,15.40
2018-06-29T09:49:58.275Z,13.80
2018-06-29T09:52:26.912Z,14.50
2018-06-29T09:54:55.612Z,17.93
2018-06-29T09:57:25.070Z,13.10
2018-06-29T09:59:54.980Z,12.73
2018-06-29T10:02:23.848Z,11.47
2018-06-29T10:04:52.561Z,12.93
2018-06-29T10:07:21.328Z,13.13
2018-06-29T10:09:50.089Z,12.67
2018-06-29T10:12:19.153Z,15.10
2018-06-29T10:14:48.417Z,14.27
2018-06-29T10:17:17.059Z,13.53
2018-06-29T10:19:46.777Z,12.53
2018-06-29T10:22:15.268Z,12.97
2018-06-29T10:24:44.255Z,16.57
2018-06-29T10:27:13.196Z,11.53
2018-06-29T10:29:42.035Z,13.10
2018-06-29T10:32:11.435Z,12.57
2018-06-29T10:34:40.222Z,13.90
2018-06-29T10:37:09.126Z,12.70
2018-06-29T10:39:38.911Z,13.03
2018-06-29T10:42:07.522Z,13.97
2018-06-29T10:44:36.142Z,13.37
2018-06-29T10:47:05.936Z,14.33
2018-06-29T10:49:35.062Z,16.30
2018-06-29T10:52:04.199Z,14.07
2018-06-29T10:54:33.830Z,14.20
2018-06-29T10:57:02.949Z,15.27
2018-06-29T10:59:31.956Z,13.57
2018-06-29T11:02:00.936Z,18.30
2018-06-29T11:04:29.722Z,19.33
2018-06-29T11:06:59.027Z,14.90
2018-06-29T11:09:28.458Z,13.87
2018-06-29T11:11:58.142Z,14.83
2018-06-29T11:14:26.931Z,16.17
2018-06-29T11:16:55.648Z,15.03
2018-06-29T11:19:24.327Z,18.93
2018-06-29T11:21:52.967Z,13.73
2018-06-29T11:24:21.574Z,14.30
2018-06-29T11:26:50.326Z,14.97
2018-06-29T11:29:19.024Z,13.53
2018-06-29T11:31:47.913Z,12.93
2018-06-29T11:34:16.591Z,12.63
2018-06-29T11:36:45.934Z,12.20
2018-06-29T11:39:14.844Z,12.87
2018-06-29T11:41:44.023Z,11.60
2018-06-29T11:44:13.766Z,11.30
2018-06-29T11:46:43.661Z,16.03
2018-06-29T11:49:12.637Z,10.00
2018-06-29T11:51:41.759Z,11.27
2018-06-29T11:54:10.832Z,12.23
2018-06-29T11:56:39.990Z,13.57
2018-06-29T11:59:10.165Z,8.57
2018-06-29T12:01:40.173Z,9.50
2018-06-29T12:04:09.628Z,14.17
2018-06-29T12:06:38.279Z,11.57
2018-06-29T12:09:09.267Z,9.47
2018-06-29T12:11:39.436Z,9.60
2018-06-29T12:14:08.741Z,10.17
2018-06-29T12:16:37.367Z,10.00
2018-06-29T12:19:05.997Z,10.17
2018-06-29T12:21:34.986Z,7.13
2018-06-29T12:24:04.473Z,11.77
2018-06-29T12:26:34.026Z,7.33
2018-06-29T12:29:02.643Z,7.67
2018-06-29T12:31:31.272Z,7.60
2018-06-29T12:33:59.970Z,12.70
2018-06-29T12:36:29.458Z,9.50
2018-06-29T12:38:59.597Z,7.17
2018-06-29T12:41:29.486Z,6.07
2018-06-29T12:43:59.608Z,12.23
2018-06-29T12:46:28.240Z,7.07
2018-06-29T12:48:57.534Z,7.80
2018-06-29T12:51:26.650Z,6.17
2018-06-29T12:53:55.585Z,6.40
2018-06-29T12:56:24.247Z,6.40
2018-06-29T12:58:53.286Z,6.10
2018-06-29T13:01:23.370Z,8.23
2018-06-29T13:03:53.344Z,6.13
2018-06-29T13:06:22.702Z,6.70
2018-06-29T13:08:52.226Z,6.43
2018-06-29T13:11:20.872Z,12.30
2018-06-29T13:13:49.480Z,7.60
2018-06-29T13:16:18.899Z,5.70
2018-06-29T13:18:47.566Z,8.23
2018-06-29T13:21:16.587Z,9.07
2018-06-29T13:23:46.705Z,9.30
2018-06-29T13:26:15.857Z,8.40
2018-06-29T13:28:45.035Z,5.90
2018-06-29T13:31:13.746Z,5.93
2018-06-29T13:33:43.281Z,10.10
2018-06-29T13:36:13.351Z,6.00
2018-06-29T13:38:43.116Z,6.30
2018-06-29T13:41:12.305Z,6.00
2018-06-29T13:43:41.935Z,8.40
2018-06-29T13:46:10.701Z,7.30
2018-06-29T13:48:39.431Z,6.37
2018-06-29T13:51:09.013Z,9.13
2018-06-29T13:53:38.880Z,6.17
2018-06-29T13:56:08.572Z,5.87
2018-06-29T13:58:38.134Z,8.13
2018-06-29T14:01:07.436Z,5.70
2018-06-29T14:03:36.141Z,6.87
2018-06-29T14:06:05.137Z,6.30
2018-06-29T14:08:34.110Z,5.97
2018-06-29T14:11:03.575Z,5.93
2018-06-29T14:13:33.245Z,7.10
2018-06-29T14:16:01.984Z,6.33
2018-06-29T14:18:31.028Z,7.53
2018-06-29T14:20:59.756Z,7.83
2018-06-29T14:23:29.028Z,7.63
2018-06-29T14:25:58.602Z,6.23
2018-06-29T14:28:27.584Z,10.20
2018-06-29T14:30:56.663Z,6.57
2018-06-29T14:33:25.705Z,6.10
2018-06-29T14:35:54.473Z,6.20
2018-06-29T14:38:23.775Z,7.40
2018-06-29T14:40:53.065Z,7.20
2018-06-29T14:43:21.727Z,6.10
2018-06-29T14:45:50.462Z,9.73
2018-06-29T14:48:19.207Z,6.60
2018-06-29T14:50:48.242Z,7.50
2018-06-29T14:53:17.535Z,6.10
2018-06-29T14:55:46.148Z,9.23
2018-06-29T14:58:15.494Z,5.60
2018-06-29T15:00:44.109Z,5.57
2018-06-29T15:03:12.767Z,6.63
2018-06-29T15:05:41.401Z,6.77
2018-06-29T15:08:10.604Z,7.40
2018-06-29T15:10:39.573Z,6.10
2018-06-29T15:13:08.607Z,6.23
2018-06-29T15:15:37.358Z,7.97
2018-06-29T15:18:06.596Z,5.97
2018-06-29T15:20:35.410Z,6.13
2018-06-29T15:23:04.552Z,6.27
2018-06-29T15:25:33.765Z,6.57
2018-06-29T15:28:02.915Z,6.03
2018-06-29T15:30:32.452Z,5.33
2018-06-29T15:33:01.230Z,7.70
2018-06-29T15:35:29.929Z,7.57
2018-06-29T15:37:58.590Z,10.23
2018-06-29T15:40:27.281Z,7.47
2018-06-29T15:42:55.985Z,7.33
2018-06-29T15:45:25.728Z,6.70
2018-06-29T15:47:54.599Z,5.40
2018-06-29T15:50:23.784Z,9.93
2018-06-29T15:52:52.826Z,9.10
2018-06-29T15:55:21.666Z,6.37
2018-06-29T15:57:51.661Z,5.80
2018-06-29T16:00:20.654Z,6.20
2018-06-29T16:02:49.217Z,6.00
2018-06-29T16:05:17.903Z,8.60
2018-06-29T16:07:46.522Z,8.47
2018-06-29T16:10:15.582Z,8.10
2018-06-29T16:12:44.416Z,5.70
2018-06-29T16:15:13.408Z,7.23
2018-06-29T16:17:42.089Z,6.93
2018-06-29T16:20:12.055Z,6.87
2018-06-29T16:22:41.371Z,7.33
2018-06-29T16:25:10.007Z,7.10
2018-06-29T16:27:39.022Z,5.53
2018-06-29T16:30:08.922Z,5.93
2018-06-29T16:32:37.474Z,5.77
2018-06-29T16:35:06.438Z,5.77
2018-06-29T16:37:35.189Z,7.10
2018-06-29T16:40:03.916Z,6.00
2018-06-29T16:42:32.619Z,6.27
2018-06-29T16:45:01.223Z,5.83
2018-06-29T16:47:29.980Z,5.60
2018-06-29T16:49:58.931Z,5.50
2018-06-29T16:52:27.518Z,6.17
2018-06-29T16:54:56.098Z,6.23
2018-06-29T16:57:25.324Z,8.67
2018-06-29T16:59:54.044Z,5.93
2018-06-29T17:02:22.868Z,6.40
2018-06-29T17:04:52.072Z,6.23
2018-06-29T17:07:20.776Z,6.30
2018-06-29T17:09:49.726Z,5.80
2018-06-29T17:12:19.055Z,5.23
2018-06-29T17:14:47.673Z,6.83
2018-06-29T17:17:16.427Z,9.40
2018-06-29T17:19:45.080Z,6.07
2018-06-29T17:22:13.781Z,5.63
2018-06-29T17:24:42.522Z,5.17
2018-06-29T17:27:11.197Z,6.07
2018-06-29T17:29:39.891Z,6.30
2018-06-29T17:32:08.543Z,6.43
2018-06-29T17:34:37.183Z,5.30
2018-06-29T17:37:05.881Z,7.43
2018-06-29T17:39:34.537Z,6.70
2018-06-29T17:42:03.655Z,6.23
2018-06-29T17:44:32.649Z,6.77
2018-06-29T17:47:01.378Z,6.07
2018-06-29T17:49:29.970Z,6.53
2018-06-29T17:51:58.612Z,6.30
2018-06-29T17:54:27.212Z,5.73
2018-06-29T17:56:56.420Z,7.47
2018-06-29T17:59:25.079Z,5.83
2018-06-29T18:01:53.947Z,5.43
2018-06-29T18:04:23.024Z,5.87
2018-06-29T18:06:51.629Z,5.70
2018-06-29T18:09:20.240Z,6.40
2018-06-29T18:11:49.011Z,5.87
2018-06-29T18:14:18.145Z,7.30
2018-06-29T18:16:47.015Z,7.47
2018-06-29T18:19:15.697Z,6.10
2018-06-29T18:21:44.274Z,6.13
2018-06-29T18:24:12.971Z,8.07
2018-06-29T18:26:41.707Z,6.17
2018-06-29T18:29:10.484Z,6.93
2018-06-29T18:31:39.599Z,5.93
2018-06-29T18:34:08.837Z,5.73
2018-06-29T18:36:37.849Z,6.27
2018-06-29T18:39:08.797Z,7.10
2018-06-29T18:41:37.480Z,7.97
2018-06-29T18:44:06.142Z,7.40
2018-06-29T18:46:34.709Z,7.83
2018-06-29T18:49:03.591Z,8.47
2018-06-29T18:51:32.491Z,6.77
2018-06-29T18:54:01.251Z,7.73
2018-06-29T18:56:29.917Z,7.03
2018-06-29T18:58:58.676Z,7.23
2018-06-29T19:01:27.925Z,7.03
2018-06-29T19:03:56.668Z,6.87
2018-06-29T19:06:25.388Z,7.53
2018-06-29T19:08:54.428Z,7.53
2018-06-29T19:11:23.295Z,7.80
2018-06-29T19:13:51.946Z,7.07
2018-06-29T19:16:21.508Z,7.07
2018-06-29T19:18:51.206Z,6.23
2018-06-29T19:21:20.171Z,5.87
2018-06-29T19:23:48.595Z,6.90
2018-06-29T19:26:17.307Z,7.10
2018-06-29T19:28:46.128Z,7.27
2018-06-29T19:31:14.777Z,6.80
2018-06-29T19:33:43.476Z,6.77
2018-06-29T19:36:12.211Z,7.53
2018-06-29T19:38:40.889Z,7.00
2018-06-29T19:41:09.840Z,7.13
2018-06-29T19:43:38.527Z,9.27
2018-06-29T19:46:07.199Z,7.73
2018-06-29T19:48:35.875Z,12.27
2018-06-29T19:51:04.739Z,7.40
2018-06-29T19:53:33.391Z,7.87
2018-06-29T19:56:02.131Z,7.53
2018-06-29T19:58:30.897Z,7.00
2018-06-29T20:00:59.995Z,7.30
2018-06-29T20:03:28.853Z,6.83
2018-06-29T20:05:57.489Z,7.53
2018-06-29T20:08:26.124Z,8.20
2018-06-29T20:10:54.482Z,8.07
2018-06-29T20:13:22.802Z,8.93
2018-06-29T20:15:51.601Z,8.90
2018-06-29T20:18:20.305Z,8.27
2018-06-29T20:20:48.946Z,8.37
2018-06-29T20:23:17.747Z,8.30
2018-06-29T20:25:46.464Z,9.20
2018-06-29T20:28:15.107Z,8.50
2018-06-29T20:30:43.879Z,8.30
2018-06-29T20:33:12.768Z,8.17
2018-06-29T20:35:41.435Z,9.77
2018-06-29T20:38:10.066Z,8.10
2018-06-29T20:40:38.709Z,9.43
2018-06-29T20:43:07.414Z,8.67
2018-06-29T20:45:36.100Z,8.37
2018-06-29T20:48:04.947Z,9.03
2018-06-29T20:50:33.883Z,9.73
2018-06-29T20:53:02.651Z,8.73
2018-06-29T20:55:31.908Z,10.13
2018-06-29T20:58:00.497Z,11.83
2018-06-29T21:00:29.822Z,9.50
2018-06-29T21:02:58.865Z,9.33
2018-06-29T21:05:28.088Z,11.20
2018-06-29T21:07:56.787Z,12.00
2018-06-29T21:10:25.411Z,10.20
2018-06-29T21:12:54.346Z,13.23
2018-06-29T21:15:22.960Z,13.33
2018-06-29T21:17:51.852Z,10.50
2018-06-29T21:20:20.719Z,11.07
2018-06-29T21:22:49.484Z,10.03
2018-06-29T21:25:18.200Z,10.03
2018-06-29T21:27:46.768Z,9.73
2018-06-29T21:30:15.892Z,10.27
2018-06-29T21:32:44.517Z,9.33
2018-06-29T21:35:13.180Z,9.87
2018-06-29T21:37:41.765Z,10.47
2018-06-29T21:40:10.436Z,9.47
2018-06-29T21:42:39.146Z,8.93
2018-06-29T21:45:07.860Z,9.07
2018-06-29T21:47:36.904Z,9.27
2018-06-29T21:50:05.570Z,10.80
2018-06-29T21:52:34.162Z,9.57
2018-06-29T21:55:03.095Z,10.40
2018-06-29T21:57:31.733Z,11.30
2018-06-29T22:00:00.295Z,11.60
2018-06-29T22:02:28.999Z,10.40
2018-06-29T22:04:57.627Z,9.87
2018-06-29T22:07:26.319Z,10.23
2018-06-29T22:09:54.969Z,9.53
2018-06-29T22:12:23.693Z,9.90
2018-06-29T22:14:52.426Z,10.13
2018-06-29T22:17:21.084Z,11.80
2018-06-29T22:19:49.651Z,10.70
2018-06-29T22:22:18.302Z,11.93
2018-06-29T22:24:46.971Z,12.23
2018-06-29T22:27:15.561Z,12.67
2018-06-29T22:29:44.134Z,12.13
2018-06-29T22:32:12.766Z,14.37
2018-06-29T22:34:41.401Z,10.53
2018-06-29T22:37:10.000Z,9.60
2018-06-29T22:39:38.583Z,9.93
2018-06-29T22:42:07.174Z,9.00
2018-06-29T22:44:35.785Z,10.77
2018-06-29T22:47:04.344Z,9.43
2018-06-29T22:49:32.901Z,9.43
2018-06-29T22:52:01.540Z,10.97
2018-06-29T22:54:30.142Z,11.10
2018-06-29T22:56:58.713Z,10.57
2018-06-29T22:59:27.319Z,9.70
2018-06-29T23:01:55.934Z,10.20
2018-06-29T23:04:24.531Z,9.10
2018-06-29T23:06:53.366Z,9.07
2018-06-29T23:09:21.973Z,10.77
2018-06-29T23:11:50.881Z,8.87
2018-06-29T23:14:19.415Z,9.53
2018-06-29T23:16:48.157Z,8.53
2018-06-29T23:19:16.841Z,10.07
2018-06-29T23:21:45.402Z,12.83
2018-06-29T23:24:14.075Z,11.17
2018-06-29T23:26:42.707Z,9.90
2018-06-29T23:29:11.279Z,9.90
2018-06-29T23:31:39.507Z,10.80
2018-06-29T23:34:08.203Z,10.73
2018-06-29T23:36:36.728Z,10.10
2018-06-29T23:39:07.531Z,10.27
2018-06-29T23:41:35.727Z,8.90
2018-06-29T23:44:04.422Z,10.70
2018-06-29T23:46:32.979Z,10.57
2018-06-29T23:49:01.620Z,10.33
2018-06-29T23:51:30.208Z,9.53
2018-06-29T23:53:59.016Z,12.00
2018-06-29T23:56:27.583Z,10.60
2018-06-29T23:58:56.253Z,10.33
